Highlands Peak, California Weather observations

Data are for observation ending at time listed.
 Day   Time    Ave.   Ave.  Ave.  Vector   Max.   Stn.    Total    Solar   Ave.  
  of    of     Air    Rel.  Wind   Wind    Wind   Baro.  Precip.   Rad.    Soil  
Year   Day     Temp.  Hum.  Speed  Dir.    Gust   Pres.                    Temp. 
2015   (PST)    F      %     mph   deg.    mph     mb.     in.     W/m2     F   
------------------------------------------------------------------------------
  86   16:50   72.2    23   11.1   280     15.3   933.8    0.00     311    74.4
  86   17:00   71.9    23   10.1   284     14.0   933.8    0.00     273    74.5
  86   17:10   72.0    24    9.1   292     14.5   933.7    0.00     236    74.6
  86   17:20   71.6    23    9.2   292     13.6   933.7    0.00     200    74.7
  86   17:30   71.0    24    8.5   282     12.1   933.7    0.00     165    74.7
  86   17:40   69.5    26    9.1   290     13.4   933.7    0.00     132    74.7
  86   17:50   69.2    26    7.5   305     12.2   933.7    0.00     103    74.7
  86   18:00   68.7    26    8.8   310     13.4   933.7    0.00      75    74.8
  86   18:10   68.0    26    9.7   312     14.0   933.7    0.00      50    74.8
  86   18:20   67.4    26    9.9   314     15.3   933.6    0.00      27    74.7
  86   18:30   66.9    26    8.5   322     15.6   933.6    0.00       8    74.7
  86   18:40   66.3    26    7.3   318     10.9   933.5    0.00       1    74.6
  86   18:50   66.6    26    7.3   347     11.2   933.6    0.00       0    74.5
  86   19:00   66.5    26    6.1   358      9.6   933.6    0.00       0    74.3
  86   19:10   66.7    24    5.9    24      9.1   933.6    0.00       0    74.1
  86   19:20   66.8    23    6.9    43      9.9   933.6    0.00       0    73.9
  86   19:30   66.8    22    7.0    19     11.1   933.7    0.00       0    73.6
  86   19:40   66.9    21    5.2     6      8.7   933.8    0.00       0    73.4
  86   19:50   66.8    21    6.5   348     10.0   933.9    0.00       0    73.2
  86   20:00   66.7    20    5.8    13      9.3   934.0    0.00       0    73.1
  86   20:10   67.1    20    6.1   357      8.8   934.0    0.00       0    72.9
  86   20:20   66.6    20    5.3    12      7.1   934.1    0.00       0    72.7
  86   20:30   66.7    19    5.6    33      7.7   934.1    0.00       0    72.5
  86   20:40   67.0    19    5.8    11      7.6   934.1    0.00       0    72.3
  86   20:50   67.1    18    5.0     2      7.0   934.1    0.00       0    72.1
  86   21:00   67.0    18    5.4     9      7.1   934.2    0.00       0    72.0
  86   21:10   67.2    19    6.1    22      8.3   934.2    0.00       0    71.8
  86   21:20   67.0    19    6.0    28      9.3   934.1    0.00       0    71.5
  86   21:30   66.9    20    6.6    12     10.4   934.1    0.00       0    71.3
  86   21:40   67.1    20    6.8    23      8.8   934.1    0.00       0    71.1
  86   21:50   66.9    20    6.6    45     10.0   934.1    0.00       0    70.9
  86   22:00   67.0    20    5.8    17      7.5   934.1    0.00       0    70.7
  86   22:10   67.4    20    4.6   359      7.2   934.2    0.00       0    70.5
  86   22:20   66.9    20    5.1   345      7.1   934.2    0.00       0    70.3
  86   22:30   67.1    20    4.9     4      7.0   934.2    0.00       0    70.2
  86   22:40   66.9    20    4.4    13      6.1   934.2    0.00       0    70.1
  86   22:50   66.9    20    4.7     7      5.8   934.3    0.00       0    69.9
  86   23:00   66.7    20    5.4    63      6.4   934.2    0.00       0    69.7
  86   23:10   66.9    19    5.7    58      8.0   934.2    0.00       0    69.4
  86   23:20   67.8    18    5.7    50      8.0   934.2    0.00       0    69.3
  86   23:30   68.0    17    5.2    52      8.2   934.1    0.00       0    69.0
  86   23:40   68.0    17    4.9    48      6.3   934.1    0.00       0    68.9
  86   23:50   68.1    16    4.7    50      6.4   934.1    0.00       0    68.7
  87    0:00   68.3    16    4.1    53      5.6   933.9    0.00       0    68.5
  87    0:10   67.1    18    3.0   331      4.8   934.0    0.00       0    68.4
  87    0:20   65.3    21    1.7    14      3.1   934.0    0.00       0    68.3
  87    0:30   65.0    20    1.5    88      5.1   933.9    0.00       0    68.3
  87    0:40   64.7    19    3.4    87      5.8   933.9    0.00       0    68.1
  87    0:50   65.5    19    1.9    69      3.2   933.8    0.00       0    67.9
  87    1:00   66.1    20    2.6   283      4.2   933.8    0.00       0    67.8
  87    1:10   65.3    20    3.3    26      5.2   933.7    0.00       0    67.7
  87    1:20   65.6    19    4.9    31      6.3   933.7    0.00       0    67.6
  87    1:30   65.7    19    2.9    32      5.0   933.7    0.00       0    67.5
  87    1:40   65.8    20    1.2   354      2.9   933.7    0.00       0    67.2
  87    1:50   66.1    21    1.2   228      2.1   933.6    0.00       0    67.2
  87    2:00   66.7    20    0.9   261      3.3   933.5    0.00       0    67.1
  87    2:10   66.2    20    2.7   160      4.5   933.4    0.00       0    67.0
  87    2:20   65.7    21    4.7   154      5.8   933.3    0.00       0    66.8
  87    2:30   65.4    21    4.3   166      4.9   933.4    0.00       0    66.7
  87    2:40   65.4    21    4.1   176      5.5   933.3    0.00       0    66.6
  87    2:50   65.9    21    3.4   154      3.8   933.3    0.00       0    66.5
  87    3:00   65.8    21    3.7   137      4.7   933.1    0.00       0    66.4
  87    3:10   65.6    21    3.8   128      4.8   933.1    0.00       0    66.3
  87    3:20   65.6    21    3.7   115      4.3   933.0    0.00       0    66.2
  87    3:30   65.3    20    2.8   110      3.7   933.0    0.00       0    66.1
  87    3:40   66.2    20    1.8   154      2.3   933.0    0.00       0    65.9
  87    3:50   66.2    20    2.1   234      3.1   933.0    0.00       0    65.8
  87    4:00   65.0    20    1.3   336      3.1   933.0    0.00       0    65.6
  87    4:10   64.4    19    4.6    64      8.1   932.9    0.00       0    65.5
  87    4:20   63.6    18    4.1    72      6.6   932.9    0.00       0    65.3
  87    4:30   65.0    17    2.3    40      4.8   933.0    0.00       0    65.1
  87    4:40   65.4    17    3.5    72      5.5   933.1    0.00       0    65.0
  87    4:50   65.1    18    4.0   101      5.7   933.1    0.00       0    64.9
  87    5:00   66.1    16    1.8   108      3.7   933.1    0.00       0    64.8
  87    5:10   65.6    18    1.9   144      2.7   933.0    0.00       0    64.8
  87    5:20   65.6    18    0.5   160      2.3   933.0    0.00       0    64.7
  87    5:30   66.1    17    1.3   239      1.9   933.0    0.00       0    64.5
  87    5:40   66.2    18    0.3   239      1.0   932.9    0.00       0    64.4
  87    5:50   66.7    17    2.4   252      4.7   932.9    0.00       1    64.3
  87    6:00   66.5    17    1.2   251      2.0   932.8    0.00       3    64.2
  87    6:10   66.5    17    3.0   230      4.4   932.9    0.00       7    64.1
  87    6:20   66.7    18    3.0   241      4.4   932.9    0.00      12    64.0
  87    6:30   66.5    18    1.4   233      3.0   933.1    0.00      16    63.9
  87    6:40   66.2    18    1.1   145      2.1   933.2    0.00      49    63.9
  87    6:50   67.4    17    1.2   248      2.1   933.3    0.00     162    63.8
  87    7:00   68.2    16    0.8    35      2.5   933.4    0.00     201    63.6
  87    7:10   69.5    16    1.1    72      3.4   933.4    0.00     242    63.5
  87    7:20   69.3    18    1.4    67      4.4   933.5    0.00     282    63.4
  87    7:30   69.2    23    2.8    86      3.8   933.6    0.00     323    63.2
  87    7:40   69.3    24    3.4   120      4.2   933.7    0.00     362    63.2
  87    7:50   69.3    22    3.4   148      4.5   933.7    0.00     402    63.1
  87    8:00   70.4    21    2.4   152      4.1   933.7    0.00     440    63.1
  87    8:10   70.8    22    3.9   167      6.1   933.6    0.00     477    63.1
  87    8:20   70.7    20    4.1   182      5.4   933.7    0.00     514    63.1
  87    8:30   70.4    20    3.4   190      4.7   933.8    0.00     550    63.1
  87    8:40   71.2    22    3.3   194      4.7   933.9    0.00     586    63.2
  87    8:50   71.2    21    3.9   190      5.8   933.9    0.00     620    63.2
  87    9:00   71.4    21    4.2   180      6.1   934.0    0.00     652    63.3
  87    9:10   71.5    21    3.7   192      5.8   934.0    0.00     683    63.4
  87    9:20   70.1    24    3.6   252      5.6   934.1    0.00     713    63.5
  87    9:30   68.6    27    3.2   260      5.0   934.2    0.00     738    63.6
  87    9:40   68.5    27    1.5   276      3.7   934.2    0.00     761    63.7
  87    9:50   69.7    21    0.9   284      1.8   934.3    0.00     789    63.9
  87   10:00   69.9    21    2.9   267      4.6   934.4    0.00     802    64.0
  87   10:10   69.5    20    3.3   265      6.1   934.4    0.00     823    64.1
  87   10:20   69.6    22    4.0   271      5.5   934.5    0.00     817    64.3
  87   10:30   69.8    22    3.8   266      6.6   934.5    0.00     879    64.4
  87   10:40   69.9    22    5.1   266      8.0   934.4    0.00     862    64.7
  87   10:50   69.7    21    5.0   283      7.5   934.4    0.00     903    64.9
  87   11:00   69.7    20    5.2   279      8.0   934.3    0.00     904    65.1
  87   11:10   69.9    22    5.8   282      8.6   934.3    0.00     926    65.3
  87   11:20   69.7    21    5.7   280      8.6   934.4    0.00     906    65.6
  87   11:30   70.0    22    6.0   270      9.1   934.3    0.00     957    65.8
  87   11:40   70.3    23    5.8   272      9.3   934.3    0.00     933    66.0
  87   11:50   70.2    22    7.8   281     11.7   934.2    0.00     945    66.3
  87   12:00   70.4    22    7.4   286     11.7   934.1    0.00     961    66.6
  87   12:10   70.5    23    6.5   270     10.7   934.0    0.00     952    66.8
  87   12:20   70.5    21    6.0   257     11.0   934.0    0.00     951    67.0
  87   12:30   70.7    21    5.3   271     10.5   933.9    0.00     947    67.2
  87   12:40   71.4    19    5.7   272      9.3   933.8    0.00     935    67.5
  87   12:50   71.8    19    7.4   284     11.1   933.7    0.00     937    67.8
  87   13:00   71.9    19    7.1   275     10.5   933.6    0.00     928    68.1
  87   13:10   72.2    19    6.4   274     10.2   933.4    0.00     917    68.3
  87   13:20   72.4    19    6.6   279     10.9   933.3    0.00     904    68.7
  87   13:30   72.3    18    5.8   272      9.1   933.3    0.00     888    69.0
  87   13:40   72.0    18    5.8   278      9.9   933.2    0.00     872    69.3
  87   13:50   72.4    18    6.0   280      9.3   933.1    0.00     855    69.7
  87   14:00   71.8    18    5.4   274     11.8   933.0    0.00     836    70.1
  87   14:10   72.7    18    5.2   273     11.8   932.9    0.00     816    70.4
  87   14:20   72.7    17    5.0   274      9.6   932.8    0.00     794    70.8
  87   14:30   73.3    18    5.5   280      9.9   932.7    0.00     750    71.2
  87   14:40   73.3    18    6.6   287     10.2   932.6    0.00     751    71.5
  87   14:50   73.0    18    7.5   280     11.5   932.7    0.00     724    71.8
  87   15:00   73.0    18    6.7   282     10.2   932.6    0.00     699    72.2
  87   15:10   72.9    18    6.3   281     10.4   932.6    0.00     659    72.4
  87   15:20   73.1    19    5.5   275      9.7   932.6    0.00     607    72.7
  87   15:30   73.3    18    5.5   270      9.2   932.6    0.00     587    73.0
  87   15:40   73.3    18    4.9   272      8.7   932.5    0.00     563    73.2
  87   15:50   73.3    18    4.8   277      8.6   932.4    0.00     524    73.5
  87   16:00   73.3    19    5.3   273      8.8   932.3    0.00     484    73.7
  87   16:10   73.6    18    5.0   277      7.7   932.3    0.00     454    74.0
  87   16:20   73.4    18    4.3   280      6.9   932.3    0.00     420    74.2
  87   16:30   73.3    18    4.4   275      7.2   932.3    0.00     378    74.5
  87   16:40   73.0    17    4.5   279      6.6   932.2    0.00     350    74.6

Return to Highlands Peak graphs page.


Western Regional Climate Center,wrcc@dri.edu